createdAt,value
2023-05-22T00:01:37.580Z,3.75
2023-05-22T00:04:04.718Z,3.33
2023-05-22T00:06:31.509Z,3.55
2023-05-22T00:08:58.034Z,3.72
2023-05-22T00:11:24.632Z,3.10
2023-05-22T00:13:51.412Z,3.95
2023-05-22T00:16:17.935Z,4.78
2023-05-22T00:18:44.628Z,3.30
2023-05-22T00:21:11.478Z,3.58
2023-05-22T00:23:38.097Z,4.03
2023-05-22T00:26:04.837Z,3.55
2023-05-22T00:28:31.599Z,4.30
2023-05-22T00:30:58.186Z,3.85
2023-05-22T00:33:24.880Z,3.22
2023-05-22T00:35:51.546Z,3.63
2023-05-22T00:38:32.712Z,3.03
2023-05-22T00:41:00.796Z,3.95
2023-05-22T00:43:27.807Z,3.72
2023-05-22T00:45:54.585Z,4.60
2023-05-22T00:48:21.881Z,3.88
2023-05-22T00:50:50.082Z,4.03
2023-05-22T00:53:18.337Z,4.05
2023-05-22T00:55:45.209Z,3.55
2023-05-22T00:58:17.520Z,3.47
2023-05-22T01:00:45.311Z,4.07
2023-05-22T01:03:12.718Z,3.40
2023-05-22T01:05:40.746Z,3.90
2023-05-22T01:08:08.584Z,3.53
2023-05-22T01:10:37.692Z,3.28
2023-05-22T01:13:28.535Z,4.45
2023-05-22T01:16:37.255Z,3.53
2023-05-22T01:19:47.605Z,4.47
2023-05-22T01:22:32.680Z,3.25
2023-05-22T01:25:28.865Z,3.90
2023-05-22T01:28:33.707Z,3.45
2023-05-22T01:31:14.238Z,3.75
2023-05-22T01:33:48.210Z,4.22
2023-05-22T01:36:20.263Z,4.85
2023-05-22T01:38:47.776Z,4.10
2023-05-22T01:41:14.912Z,3.50
2023-05-22T01:43:42.453Z,3.90
2023-05-22T01:46:09.062Z,3.78
2023-05-22T01:48:35.840Z,4.20
2023-05-22T01:51:07.792Z,4.25
2023-05-22T01:53:46.054Z,3.60
2023-05-22T01:56:16.536Z,3.97
2023-05-22T01:58:49.483Z,3.53
2023-05-22T02:01:19.529Z,4.15
2023-05-22T02:03:48.577Z,4.03
2023-05-22T02:06:17.106Z,4.32
2023-05-22T02:08:44.059Z,4.53
2023-05-22T02:11:12.500Z,4.10
2023-05-22T02:13:39.814Z,5.70
2023-05-22T02:16:07.231Z,5.05
2023-05-22T02:18:34.078Z,5.22
2023-05-22T02:21:01.044Z,5.40
2023-05-22T02:23:29.581Z,3.75
2023-05-22T02:25:56.581Z,4.88
2023-05-22T02:28:23.710Z,6.20
2023-05-22T02:30:50.467Z,5.80
2023-05-22T02:33:18.522Z,4.82
2023-05-22T02:35:45.643Z,5.13
2023-05-22T02:38:12.820Z,4.43
2023-05-22T02:40:40.233Z,4.75
2023-05-22T02:43:07.132Z,5.30
2023-05-22T02:45:33.803Z,5.55
2023-05-22T02:48:03.374Z,4.55
2023-05-22T02:50:30.316Z,4.78
2023-05-22T02:52:56.950Z,4.65
2023-05-22T02:55:23.690Z,4.50
2023-05-22T02:57:50.234Z,5.03
2023-05-22T03:00:17.387Z,4.93
2023-05-22T03:02:44.161Z,4.95
2023-05-22T03:05:10.907Z,5.50
2023-05-22T03:07:37.703Z,4.95
2023-05-22T03:10:04.646Z,5.15
2023-05-22T03:12:31.241Z,5.55
2023-05-22T03:14:58.245Z,4.13
2023-05-22T03:17:24.926Z,5.72
2023-05-22T03:19:51.669Z,6.07
2023-05-22T03:22:21.417Z,5.22
2023-05-22T03:24:48.083Z,6.30
2023-05-22T03:27:17.068Z,5.65
2023-05-22T03:29:43.703Z,6.63
2023-05-22T03:32:10.997Z,6.45
2023-05-22T03:34:37.690Z,5.35
2023-05-22T03:37:08.977Z,6.13
2023-05-22T03:39:36.146Z,6.25
2023-05-22T03:42:16.383Z,7.10
2023-05-22T03:44:42.980Z,6.38
2023-05-22T03:47:09.636Z,6.18
2023-05-22T03:49:36.394Z,6.60
2023-05-22T03:52:04.989Z,6.53
2023-05-22T03:54:31.618Z,6.63
2023-05-22T03:56:58.198Z,6.57
2023-05-22T03:59:24.769Z,5.63
2023-05-22T04:01:51.420Z,6.40
2023-05-22T04:04:18.023Z,6.15
2023-05-22T04:06:45.011Z,6.97
2023-05-22T04:09:13.068Z,7.13
2023-05-22T04:11:39.900Z,6.78
2023-05-22T04:14:06.625Z,7.05
2023-05-22T04:16:33.744Z,6.50
2023-05-22T04:19:03.394Z,6.60
2023-05-22T04:21:34.393Z,7.10
2023-05-22T04:24:07.085Z,6.25
2023-05-22T04:26:34.057Z,7.63
2023-05-22T04:29:01.198Z,6.47
2023-05-22T04:31:28.587Z,6.57
2023-05-22T04:33:55.990Z,7.50
2023-05-22T04:36:25.853Z,7.93
2023-05-22T04:38:53.957Z,7.03
2023-05-22T04:41:22.664Z,7.35
2023-05-22T04:43:52.852Z,7.43
2023-05-22T04:46:19.787Z,6.85
2023-05-22T04:48:47.149Z,6.53
2023-05-22T04:51:14.396Z,6.68
2023-05-22T04:53:41.200Z,7.35
2023-05-22T04:56:07.859Z,6.78
2023-05-22T04:58:34.672Z,7.75
2023-05-22T05:01:01.349Z,7.70
2023-05-22T05:03:28.586Z,6.45
2023-05-22T05:05:56.591Z,7.28
2023-05-22T05:08:23.244Z,7.30
2023-05-22T05:10:49.872Z,7.25
2023-05-22T05:13:17.340Z,7.82
2023-05-22T05:15:45.648Z,7.30
2023-05-22T05:18:12.384Z,7.72
2023-05-22T05:20:39.236Z,7.32
2023-05-22T05:23:06.136Z,7.25
2023-05-22T05:25:33.091Z,7.13
2023-05-22T05:28:00.180Z,7.97
2023-05-22T05:30:27.601Z,7.28
2023-05-22T05:33:08.573Z,7.85
2023-05-22T05:35:42.686Z,7.53
2023-05-22T05:38:11.103Z,7.57
2023-05-22T05:40:40.083Z,7.53
2023-05-22T05:43:09.291Z,8.07
2023-05-22T05:45:36.402Z,7.63
2023-05-22T05:48:03.139Z,7.35
2023-05-22T05:50:30.101Z,8.27
2023-05-22T05:52:57.111Z,7.85
2023-05-22T05:55:23.873Z,8.18
2023-05-22T05:57:51.263Z,8.65
2023-05-22T06:00:35.083Z,8.48
2023-05-22T06:03:01.836Z,7.65
2023-05-22T06:05:52.443Z,7.35
2023-05-22T06:08:34.446Z,8.20
2023-05-22T06:11:01.603Z,7.90
2023-05-22T06:13:38.101Z,8.35
2023-05-22T06:16:06.743Z,8.23
2023-05-22T06:18:34.511Z,8.35
2023-05-22T06:21:01.225Z,8.05
2023-05-22T06:23:27.865Z,8.30
2023-05-22T06:25:55.544Z,8.25
2023-05-22T06:28:22.714Z,7.95
2023-05-22T06:30:49.425Z,8.77
2023-05-22T06:33:18.918Z,8.60
2023-05-22T06:35:45.715Z,7.97
2023-05-22T06:38:12.642Z,7.75
2023-05-22T06:40:41.395Z,7.78
2023-05-22T06:43:13.699Z,7.78
2023-05-22T06:45:51.242Z,8.68
2023-05-22T06:48:36.029Z,8.77
2023-05-22T06:51:10.840Z,8.48
2023-05-22T06:53:39.505Z,8.90
2023-05-22T06:56:11.351Z,9.27
2023-05-22T06:58:56.459Z,9.05
2023-05-22T07:01:31.371Z,9.77
2023-05-22T07:04:05.412Z,9.65
2023-05-22T07:06:52.932Z,8.50
2023-05-22T07:09:20.070Z,8.90
2023-05-22T07:11:48.986Z,10.30
2023-05-22T07:14:16.433Z,8.85
2023-05-22T07:16:43.742Z,8.52
2023-05-22T07:19:11.860Z,9.18
2023-05-22T07:21:39.879Z,9.77
2023-05-22T07:24:10.880Z,10.15
2023-05-22T07:26:46.553Z,9.23
2023-05-22T07:29:14.155Z,9.35
2023-05-22T07:31:42.166Z,10.63
2023-05-22T07:34:09.385Z,10.10
2023-05-22T07:36:36.095Z,9.82
2023-05-22T07:39:04.990Z,10.20
2023-05-22T07:41:35.868Z,11.38
2023-05-22T07:44:02.589Z,11.95
2023-05-22T07:46:35.370Z,11.18
2023-05-22T07:49:10.793Z,13.35
2023-05-22T07:51:41.003Z,12.73
2023-05-22T07:54:08.292Z,12.38
2023-05-22T07:56:39.568Z,13.95
2023-05-22T07:59:07.464Z,14.27
2023-05-22T08:01:34.065Z,12.98
2023-05-22T08:04:01.068Z,13.77
2023-05-22T08:06:27.917Z,13.45
2023-05-22T08:08:54.540Z,13.25
2023-05-22T08:11:21.430Z,14.68
2023-05-22T08:13:48.203Z,12.60
2023-05-22T08:16:14.856Z,13.38
2023-05-22T08:18:41.548Z,12.68
2023-05-22T08:21:08.148Z,13.13
2023-05-22T08:23:36.354Z,13.80
2023-05-22T08:26:03.096Z,13.30
2023-05-22T08:28:29.743Z,13.73
2023-05-22T08:30:56.509Z,13.75
2023-05-22T08:33:23.262Z,13.02
2023-05-22T08:35:49.863Z,12.57
2023-05-22T08:38:17.551Z,13.00
2023-05-22T08:40:48.687Z,13.93
2023-05-22T08:43:15.839Z,11.85
2023-05-22T08:45:44.092Z,12.98
2023-05-22T08:48:13.950Z,12.30
2023-05-22T08:50:46.114Z,13.25
2023-05-22T08:53:15.309Z,10.60
2023-05-22T08:55:42.485Z,10.80
2023-05-22T08:58:11.588Z,11.02
2023-05-22T09:00:38.516Z,12.23
2023-05-22T09:03:06.928Z,10.32
2023-05-22T09:05:34.163Z,9.48
2023-05-22T09:08:16.147Z,11.32
2023-05-22T09:10:46.240Z,11.45
2023-05-22T09:13:27.362Z,10.75
2023-05-22T09:16:08.119Z,11.02
2023-05-22T09:18:37.091Z,11.05
2023-05-22T09:21:08.974Z,10.90
2023-05-22T09:23:41.763Z,11.30
2023-05-22T09:26:08.356Z,12.55
2023-05-22T09:28:36.837Z,11.35
2023-05-22T09:31:04.309Z,11.65
2023-05-22T09:33:32.190Z,11.13
2023-05-22T09:35:59.289Z,11.45
2023-05-22T09:38:29.240Z,11.30
2023-05-22T09:40:56.741Z,11.60
2023-05-22T09:43:25.613Z,12.05
2023-05-22T09:46:01.769Z,11.93
2023-05-22T09:48:28.882Z,12.35
2023-05-22T09:50:57.132Z,13.88
2023-05-22T09:53:28.087Z,12.90
2023-05-22T09:55:58.120Z,11.15
2023-05-22T09:58:27.014Z,13.80
2023-05-22T10:00:58.177Z,13.77
2023-05-22T10:03:27.154Z,13.27
2023-05-22T10:05:56.294Z,12.00
2023-05-22T10:08:28.501Z,13.98
2023-05-22T10:10:55.483Z,13.10
2023-05-22T10:13:22.259Z,14.48
2023-05-22T10:15:50.427Z,12.98
2023-05-22T10:18:17.724Z,12.68
2023-05-22T10:20:47.013Z,13.90
2023-05-22T10:23:16.260Z,13.00
2023-05-22T10:25:44.306Z,13.07
2023-05-22T10:28:12.095Z,13.10
2023-05-22T10:30:58.393Z,12.27
2023-05-22T10:33:51.250Z,12.48
2023-05-22T10:36:41.939Z,13.20
2023-05-22T10:39:44.208Z,11.20
2023-05-22T10:42:14.240Z,10.88
2023-05-22T10:44:41.356Z,11.18
2023-05-22T10:47:13.189Z,12.10
2023-05-22T10:49:46.689Z,12.23
2023-05-22T10:52:18.400Z,12.57
2023-05-22T10:54:46.245Z,11.95
2023-05-22T10:57:17.184Z,11.65
2023-05-22T10:59:47.105Z,13.05
2023-05-22T11:02:22.233Z,12.20
2023-05-22T11:07:15.984Z,12.27
2023-05-22T11:09:48.029Z,12.88
2023-05-22T11:12:24.601Z,12.60
2023-05-22T11:14:58.648Z,12.90
2023-05-22T11:17:52.008Z,13.55
2023-05-22T11:20:25.554Z,10.75
2023-05-22T11:22:59.922Z,12.57
2023-05-22T11:25:28.161Z,13.85
2023-05-22T11:27:55.928Z,13.90
2023-05-22T11:30:28.265Z,14.00
2023-05-22T11:32:55.153Z,13.13
2023-05-22T11:35:22.298Z,13.43
2023-05-22T11:37:51.297Z,13.40
2023-05-22T11:40:25.875Z,13.35
2023-05-22T11:42:53.706Z,14.18
2023-05-22T11:45:20.559Z,14.60
2023-05-22T11:47:48.744Z,12.70
2023-05-22T11:50:22.557Z,13.60
2023-05-22T11:52:53.708Z,13.07
2023-05-22T11:55:20.387Z,16.15
2023-05-22T11:57:47.969Z,16.27
2023-05-22T12:00:15.265Z,16.42
2023-05-22T12:02:49.261Z,16.13
2023-05-22T12:05:16.602Z,16.10
2023-05-22T12:07:43.599Z,15.65
2023-05-22T12:10:10.955Z,15.95
2023-05-22T12:12:37.918Z,16.08
2023-05-22T12:15:08.255Z,14.98
2023-05-22T12:17:38.509Z,17.45
2023-05-22T12:20:07.033Z,17.27
2023-05-22T12:22:33.824Z,17.83
2023-05-22T12:25:00.475Z,18.17
2023-05-22T12:27:33.346Z,18.65
2023-05-22T12:30:09.266Z,16.00
2023-05-22T12:32:36.540Z,17.17
2023-05-22T12:35:03.180Z,16.38
2023-05-22T12:37:31.992Z,15.43
2023-05-22T12:40:03.696Z,17.10
2023-05-22T12:42:30.508Z,16.55
2023-05-22T12:44:58.075Z,16.48
2023-05-22T12:47:25.307Z,16.23
2023-05-22T12:49:52.684Z,16.50
2023-05-22T12:52:19.421Z,16.20
2023-05-22T12:54:46.367Z,15.90
2023-05-22T12:57:13.061Z,17.10
2023-05-22T12:59:39.680Z,17.25
2023-05-22T13:02:06.937Z,17.02
2023-05-22T13:04:33.764Z,16.35
2023-05-22T13:07:01.028Z,16.80
2023-05-22T13:09:27.828Z,17.42
2023-05-22T13:11:55.070Z,16.25
2023-05-22T13:14:21.718Z,20.90
2023-05-22T13:16:48.421Z,16.55
2023-05-22T13:19:15.214Z,16.30
2023-05-22T13:21:43.404Z,15.85
2023-05-22T13:24:09.997Z,17.85
2023-05-22T13:26:36.544Z,15.52
2023-05-22T13:29:03.301Z,14.73
2023-05-22T13:31:31.347Z,17.00
2023-05-22T13:33:57.931Z,14.85
2023-05-22T13:36:24.629Z,14.35
2023-05-22T13:38:51.173Z,11.80
2023-05-22T13:41:17.877Z,12.45
2023-05-22T13:43:44.498Z,10.18
2023-05-22T13:46:11.352Z,9.30
2023-05-22T13:48:37.910Z,9.77
2023-05-22T13:51:04.860Z,12.07
2023-05-22T13:53:31.502Z,13.35
2023-05-22T13:55:58.300Z,13.52
2023-05-22T13:58:25.569Z,11.90
2023-05-22T14:00:52.131Z,11.68
2023-05-22T14:03:18.798Z,13.55
2023-05-22T14:05:45.513Z,12.35
2023-05-22T14:08:12.616Z,11.73
2023-05-22T14:10:39.632Z,10.57
2023-05-22T14:13:06.406Z,11.63
2023-05-22T14:15:33.170Z,11.43
2023-05-22T14:17:59.931Z,11.02
2023-05-22T14:20:26.575Z,12.05
2023-05-22T14:22:57.736Z,10.65
2023-05-22T14:25:26.076Z,12.15
2023-05-22T14:27:52.801Z,10.95
2023-05-22T14:30:19.592Z,10.50
2023-05-22T14:32:46.803Z,10.80
2023-05-22T14:35:13.683Z,10.68
2023-05-22T14:37:40.333Z,10.02
2023-05-22T14:40:10.817Z,10.43
2023-05-22T14:42:37.456Z,10.43
2023-05-22T14:45:04.596Z,9.25
2023-05-22T14:47:31.168Z,10.73
2023-05-22T14:50:03.050Z,10.05
2023-05-22T14:52:41.131Z,10.02
2023-05-22T14:55:08.019Z,10.88
2023-05-22T14:57:34.739Z,9.88
2023-05-22T15:00:01.478Z,9.25
2023-05-22T15:02:28.109Z,9.68
2023-05-22T15:04:54.955Z,8.88
2023-05-22T15:07:24.386Z,9.45
2023-05-22T15:09:53.490Z,9.30
2023-05-22T15:12:21.893Z,8.27
2023-05-22T15:14:49.333Z,8.65
2023-05-22T15:17:16.167Z,10.20
2023-05-22T15:19:45.263Z,8.68
2023-05-22T15:22:19.514Z,7.90
2023-05-22T15:24:48.100Z,9.25
2023-05-22T15:27:14.869Z,7.93
2023-05-22T15:29:41.961Z,8.52
2023-05-22T15:32:09.038Z,8.32
2023-05-22T15:34:35.789Z,7.65
2023-05-22T15:37:02.439Z,8.75
2023-05-22T15:39:29.612Z,8.57
2023-05-22T15:42:05.889Z,7.60
2023-05-22T15:44:33.732Z,8.23
2023-05-22T15:47:00.349Z,7.63
2023-05-22T15:49:30.224Z,6.68
2023-05-22T15:51:58.486Z,7.43
2023-05-22T15:54:25.227Z,7.57
2023-05-22T15:56:51.981Z,7.20
2023-05-22T15:59:18.553Z,7.05
2023-05-22T16:01:45.724Z,7.45
2023-05-22T16:04:12.691Z,8.10
2023-05-22T16:06:39.435Z,7.72
2023-05-22T16:09:06.136Z,7.97
2023-05-22T16:11:33.600Z,8.60
2023-05-22T16:14:00.298Z,8.52
2023-05-22T16:16:27.157Z,8.50
2023-05-22T16:18:53.906Z,8.00
2023-05-22T16:21:20.910Z,8.20
2023-05-22T16:23:47.568Z,7.45
2023-05-22T16:26:14.901Z,8.90
2023-05-22T16:28:41.458Z,8.50
2023-05-22T16:31:08.166Z,9.32
2023-05-22T16:33:37.130Z,9.60
2023-05-22T16:36:04.390Z,9.85
2023-05-22T16:38:31.123Z,8.60
2023-05-22T16:40:57.992Z,8.00
2023-05-22T16:43:24.656Z,7.50
2023-05-22T16:45:51.481Z,7.50
2023-05-22T16:48:18.530Z,7.05
2023-05-22T16:50:46.596Z,6.53
2023-05-22T16:53:16.633Z,5.97
2023-05-22T16:55:43.896Z,6.25
2023-05-22T16:58:12.686Z,6.38
2023-05-22T17:00:40.194Z,6.28
2023-05-22T17:03:08.037Z,5.63
2023-05-22T17:05:35.178Z,5.28
2023-05-22T17:08:01.758Z,6.22
2023-05-22T17:10:28.450Z,6.53
2023-05-22T17:12:55.049Z,6.40
2023-05-22T17:15:21.725Z,6.72
2023-05-22T17:17:48.308Z,6.95
2023-05-22T17:20:15.026Z,6.43
2023-05-22T17:22:42.796Z,5.57
2023-05-22T17:25:09.898Z,6.75
2023-05-22T17:27:37.061Z,7.07
2023-05-22T17:30:05.492Z,6.50
2023-05-22T17:32:32.438Z,6.78
2023-05-22T17:35:00.089Z,5.97
2023-05-22T17:37:26.663Z,6.75
2023-05-22T17:39:53.808Z,5.72
2023-05-22T17:42:20.449Z,6.35
2023-05-22T17:44:47.098Z,7.03
2023-05-22T17:47:13.649Z,7.10
2023-05-22T17:49:40.407Z,7.00
2023-05-22T17:52:08.643Z,7.00
2023-05-22T17:54:36.063Z,7.20
2023-05-22T17:57:05.472Z,7.13
2023-05-22T17:59:32.331Z,7.07
2023-05-22T18:01:59.068Z,8.02
2023-05-22T18:04:25.910Z,8.13
2023-05-22T18:06:52.670Z,7.68
2023-05-22T18:09:19.264Z,8.13
2023-05-22T18:11:45.890Z,8.30
2023-05-22T18:14:12.572Z,8.52
2023-05-22T18:16:39.128Z,7.97
2023-05-22T18:19:05.873Z,8.70
2023-05-22T18:21:32.409Z,7.78
2023-05-22T18:23:59.158Z,8.15
2023-05-22T18:26:26.778Z,8.15
2023-05-22T18:28:53.447Z,8.45
2023-05-22T18:31:20.158Z,7.55
2023-05-22T18:33:47.035Z,9.38
2023-05-22T18:36:13.798Z,9.10
2023-05-22T18:38:40.429Z,8.98
2023-05-22T18:41:07.879Z,8.82
2023-05-22T18:43:34.544Z,8.93
2023-05-22T18:46:01.188Z,10.50
2023-05-22T18:48:28.221Z,8.95
2023-05-22T18:50:57.260Z,9.20
2023-05-22T18:53:25.206Z,8.98
2023-05-22T18:55:52.447Z,9.80
2023-05-22T18:58:19.434Z,9.55
2023-05-22T19:00:46.138Z,9.05
2023-05-22T19:03:13.872Z,9.23
2023-05-22T19:05:40.594Z,8.65
2023-05-22T19:08:07.267Z,8.13
2023-05-22T19:10:33.938Z,8.52
2023-05-22T19:13:00.637Z,8.07
2023-05-22T19:15:27.261Z,6.88
2023-05-22T19:17:53.961Z,7.40
2023-05-22T19:20:20.707Z,6.18
2023-05-22T19:22:47.320Z,5.45
2023-05-22T19:25:13.902Z,6.03
2023-05-22T19:27:40.616Z,5.20
2023-05-22T19:30:07.680Z,5.07
2023-05-22T19:32:34.362Z,4.55
2023-05-22T19:35:01.442Z,4.18
2023-05-22T19:37:29.128Z,3.90
2023-05-22T19:39:55.723Z,3.88
2023-05-22T19:42:22.300Z,3.40
2023-05-22T19:44:48.854Z,3.05
2023-05-22T19:47:15.397Z,3.58
2023-05-22T19:49:41.936Z,3.20
2023-05-22T19:52:08.724Z,3.03
2023-05-22T19:54:35.790Z,2.78
2023-05-22T19:57:03.164Z,2.80
2023-05-22T19:59:29.751Z,3.03
2023-05-22T20:01:56.439Z,3.38
2023-05-22T20:04:23.194Z,3.15
2023-05-22T20:06:50.708Z,3.38
2023-05-22T20:09:17.310Z,3.30
2023-05-22T20:11:44.837Z,2.80
2023-05-22T20:14:12.905Z,3.38
2023-05-22T20:16:39.497Z,3.42
2023-05-22T20:19:06.115Z,3.35
2023-05-22T20:21:32.798Z,3.03
2023-05-22T20:23:59.457Z,3.13
2023-05-22T20:26:26.212Z,2.80
2023-05-22T20:28:52.766Z,3.67
2023-05-22T20:31:19.453Z,3.17
2023-05-22T20:33:46.094Z,3.20
2023-05-22T20:36:14.852Z,3.10
2023-05-22T20:38:42.514Z,2.70
2023-05-22T20:41:12.707Z,3.60
2023-05-22T20:43:42.991Z,3.22
2023-05-22T20:46:10.136Z,3.10
2023-05-22T20:48:36.826Z,3.42
2023-05-22T20:51:03.582Z,3.65
2023-05-22T20:53:30.131Z,2.65
2023-05-22T20:55:57.449Z,3.72
2023-05-22T20:58:24.056Z,3.60
2023-05-22T21:00:50.709Z,3.38
2023-05-22T21:03:17.771Z,3.28
2023-05-22T21:05:44.516Z,3.75
2023-05-22T21:08:11.128Z,3.30
2023-05-22T21:10:37.987Z,4.40
2023-05-22T21:13:04.624Z,3.60
2023-05-22T21:15:31.245Z,3.65
2023-05-22T21:17:57.867Z,3.97
2023-05-22T21:20:24.571Z,4.25
2023-05-22T21:22:51.122Z,3.92
2023-05-22T21:25:17.767Z,3.45
2023-05-22T21:27:46.486Z,4.05
2023-05-22T21:30:14.639Z,3.97
2023-05-22T21:32:41.964Z,3.53
2023-05-22T21:35:09.206Z,3.80
2023-05-22T21:37:35.771Z,4.25
2023-05-22T21:40:02.549Z,3.90
2023-05-22T21:42:41.848Z,3.70
2023-05-22T21:45:12.318Z,3.90
2023-05-22T21:47:38.893Z,3.83
2023-05-22T21:50:06.114Z,3.25
2023-05-22T21:52:32.644Z,3.50
2023-05-22T21:55:01.314Z,3.72
2023-05-22T21:57:28.385Z,4.20
2023-05-22T21:59:55.310Z,4.07
2023-05-22T22:02:21.978Z,4.22
2023-05-22T22:04:48.658Z,5.47
2023-05-22T22:07:15.261Z,3.75
2023-05-22T22:09:41.928Z,3.90
2023-05-22T22:12:08.588Z,4.05
2023-05-22T22:14:35.365Z,4.05
2023-05-22T22:17:02.024Z,4.90
2023-05-22T22:19:28.891Z,4.45
2023-05-22T22:21:55.690Z,3.80
2023-05-22T22:24:22.296Z,4.10
2023-05-22T22:26:49.226Z,4.68
2023-05-22T22:29:16.113Z,4.20
2023-05-22T22:31:42.782Z,4.10
2023-05-22T22:34:09.435Z,5.38
2023-05-22T22:36:35.979Z,4.47
2023-05-22T22:39:02.601Z,4.93
2023-05-22T22:41:29.149Z,4.72
2023-05-22T22:43:55.985Z,4.57
2023-05-22T22:46:22.595Z,4.82
2023-05-22T22:48:49.270Z,5.15
2023-05-22T22:51:15.905Z,4.63
2023-05-22T22:53:42.531Z,5.15
2023-05-22T22:56:09.300Z,4.30
2023-05-22T22:58:36.437Z,5.22
2023-05-22T23:01:04.947Z,4.38
2023-05-22T23:03:31.683Z,4.60
2023-05-22T23:05:58.257Z,5.00
2023-05-22T23:08:24.858Z,4.78
2023-05-22T23:10:51.443Z,4.60
2023-05-22T23:13:18.150Z,4.88
2023-05-22T23:15:44.806Z,4.35
2023-05-22T23:18:13.842Z,4.40
2023-05-22T23:20:40.521Z,5.15
2023-05-22T23:23:07.249Z,5.70
2023-05-22T23:25:33.880Z,5.10
2023-05-22T23:28:00.557Z,5.45
2023-05-22T23:30:27.123Z,5.25
2023-05-22T23:32:53.786Z,5.63
2023-05-22T23:35:20.409Z,5.60
2023-05-22T23:37:47.009Z,5.40
2023-05-22T23:40:13.556Z,5.18
2023-05-22T23:42:40.727Z,4.97
2023-05-22T23:45:07.873Z,5.70
2023-05-22T23:47:34.614Z,4.78
2023-05-22T23:50:01.178Z,5.32
2023-05-22T23:52:27.891Z,5.60
2023-05-22T23:54:54.433Z,5.28
2023-05-22T23:57:21.143Z,4.55
2023-05-22T23:59:47.674Z,5.13
